createdAt,value
2023-03-26T00:02:25.296Z,90.20
2023-03-26T00:05:05.328Z,89.86
2023-03-26T00:07:45.295Z,90.15
2023-03-26T00:10:25.224Z,89.93
2023-03-26T00:13:05.452Z,90.18
2023-03-26T00:15:45.199Z,90.90
2023-03-26T00:18:31.674Z,92.01
2023-03-26T00:21:13.213Z,92.64
2023-03-26T00:23:53.673Z,91.64
2023-03-26T00:26:36.290Z,91.04
2023-03-26T00:29:23.270Z,90.53
2023-03-26T00:32:10.251Z,90.32
2023-03-26T00:34:46.202Z,90.46
2023-03-26T00:37:33.298Z,89.37
2023-03-26T00:40:14.326Z,89.66
2023-03-26T00:43:01.239Z,89.17
2023-03-26T00:45:44.241Z,90.23
2023-03-26T00:48:44.509Z,89.63
2023-03-26T00:51:38.198Z,89.85
2023-03-26T00:54:32.226Z,89.01
2023-03-26T00:57:29.213Z,89.18
2023-03-26T01:00:16.246Z,89.18
2023-03-26T01:03:12.937Z,89.16
2023-03-26T01:06:21.360Z,89.40
2023-03-26T01:09:00.570Z,89.35
2023-03-26T01:11:47.219Z,89.23
2023-03-26T01:14:29.048Z,89.79
2023-03-26T01:17:16.299Z,90.30
2023-03-26T01:20:13.256Z,90.74
2023-03-26T01:23:07.243Z,91.78
2023-03-26T01:25:51.221Z,90.45
2023-03-26T01:28:49.227Z,91.95
2023-03-26T01:32:05.282Z,91.44
2023-03-26T01:35:04.336Z,92.75
2023-03-26T01:37:54.234Z,92.99
2023-03-26T01:40:42.902Z,92.76
2023-03-26T01:43:54.247Z,93.25
2023-03-26T01:46:30.653Z,93.44
2023-03-26T01:49:19.245Z,93.29
2023-03-26T01:51:52.396Z,93.90
2023-03-26T01:54:40.264Z,94.27
2023-03-26T01:57:43.221Z,94.95
2023-03-26T02:00:46.244Z,95.17
2023-03-26T02:03:29.472Z,94.93
2023-03-26T02:06:30.250Z,94.78
2023-03-26T02:09:08.602Z,94.90
2023-03-26T02:11:57.262Z,95.22
2023-03-26T02:14:32.547Z,95.35
2023-03-26T02:17:23.282Z,95.72
2023-03-26T02:19:56.373Z,95.86
2023-03-26T02:22:48.239Z,96.25
2023-03-26T02:25:24.388Z,96.69
2023-03-26T02:28:20.244Z,96.23
2023-03-26T02:31:16.302Z,95.88
2023-03-26T02:34:04.238Z,95.64
2023-03-26T02:36:37.498Z,95.60
2023-03-26T02:39:24.263Z,95.71
2023-03-26T02:41:57.372Z,95.44
2023-03-26T02:44:46.256Z,96.06
2023-03-26T02:47:19.367Z,95.49
2023-03-26T02:50:06.271Z,94.81
2023-03-26T02:52:39.497Z,94.57
2023-03-26T02:55:26.242Z,94.46
2023-03-26T02:57:59.466Z,94.14
2023-03-26T03:00:46.269Z,94.07
2023-03-26T03:03:30.340Z,94.10
2023-03-26T03:06:25.283Z,93.60
2023-03-26T03:09:20.249Z,94.20
2023-03-26T03:12:07.270Z,93.45
2023-03-26T03:14:47.267Z,93.94
2023-03-26T03:17:41.293Z,94.27
2023-03-26T03:20:28.284Z,93.99
2023-03-26T03:23:01.414Z,94.36
2023-03-26T03:25:49.313Z,94.77
2023-03-26T03:28:29.312Z,94.47
2023-03-26T03:31:23.370Z,94.56
2023-03-26T03:34:13.304Z,94.18
2023-03-26T03:36:48.569Z,94.20
2023-03-26T03:39:35.312Z,94.45
2023-03-26T03:42:08.422Z,94.14
2023-03-26T03:44:55.309Z,94.55
2023-03-26T03:47:28.519Z,94.44
2023-03-26T03:50:16.320Z,95.41
2023-03-26T03:52:50.691Z,95.67
2023-03-26T03:55:37.302Z,95.29
2023-03-26T03:58:12.052Z,95.41
2023-03-26T04:00:59.311Z,95.87
2023-03-26T04:03:38.846Z,95.76
2023-03-26T04:06:26.295Z,96.31
2023-03-26T04:09:06.316Z,95.88
2023-03-26T04:12:00.299Z,95.99
2023-03-26T04:14:47.362Z,96.45
2023-03-26T04:17:21.939Z,96.17
2023-03-26T04:20:26.287Z,96.33
2023-03-26T04:23:20.303Z,96.21
2023-03-26T04:26:17.318Z,96.68
2023-03-26T04:29:18.301Z,96.48
2023-03-26T04:32:05.312Z,96.87
2023-03-26T04:34:40.420Z,97.03
2023-03-26T04:37:34.371Z,97.10
2023-03-26T04:40:11.474Z,97.36
2023-03-26T04:43:05.387Z,97.46
2023-03-26T04:45:45.316Z,97.69
2023-03-26T04:48:39.369Z,98.08
2023-03-26T04:51:31.307Z,98.11
2023-03-26T04:54:07.381Z,98.14
2023-03-26T04:57:05.379Z,98.30
2023-03-26T04:59:41.460Z,97.70
2023-03-26T05:02:28.334Z,98.13
2023-03-26T05:05:11.354Z,98.47
2023-03-26T05:07:58.340Z,98.56
2023-03-26T05:10:31.458Z,98.76
2023-03-26T05:13:18.321Z,99.08
2023-03-26T05:15:52.597Z,99.03
2023-03-26T05:18:40.320Z,99.52
2023-03-26T05:21:20.318Z,99.29
2023-03-26T05:24:08.322Z,99.10
2023-03-26T05:26:49.453Z,98.93
2023-03-26T05:29:43.360Z,99.10
2023-03-26T05:32:37.435Z,99.53
2023-03-26T05:35:32.349Z,99.13
2023-03-26T05:38:26.321Z,98.97
2023-03-26T05:41:21.362Z,98.47
2023-03-26T05:44:08.311Z,97.77
2023-03-26T05:46:48.380Z,97.56
2023-03-26T05:49:42.390Z,96.64
2023-03-26T05:52:36.390Z,95.71
2023-03-26T05:55:25.370Z,94.85
2023-03-26T05:58:00.480Z,94.35
2023-03-26T06:00:42.176Z,93.93
2023-03-26T06:03:23.467Z,92.55
2023-03-26T06:05:56.743Z,90.75
2023-03-26T06:08:43.377Z,89.77
2023-03-26T06:11:17.470Z,89.26
2023-03-26T06:14:05.462Z,89.11
2023-03-26T06:16:38.477Z,87.25
2023-03-26T06:19:25.365Z,86.47
2023-03-26T06:21:58.480Z,86.61
2023-03-26T06:24:48.476Z,85.69
2023-03-26T06:27:21.539Z,85.46
2023-03-26T06:30:15.383Z,84.67
2023-03-26T06:33:09.373Z,83.67
2023-03-26T06:35:56.453Z,85.30
2023-03-26T06:38:36.388Z,84.82
2023-03-26T06:41:30.382Z,83.61
2023-03-26T06:44:24.386Z,85.02
2023-03-26T06:47:14.115Z,84.56
2023-03-26T06:49:47.496Z,84.56
2023-03-26T06:52:35.420Z,84.42
2023-03-26T06:55:10.436Z,84.91
2023-03-26T06:57:58.433Z,84.38
2023-03-26T07:00:38.401Z,84.98
2023-03-26T07:03:25.386Z,84.57
2023-03-26T07:05:58.484Z,85.15
2023-03-26T07:08:45.370Z,84.63
2023-03-26T07:11:30.493Z,84.62
2023-03-26T07:14:24.423Z,84.97
2023-03-26T07:17:11.428Z,84.00
2023-03-26T07:19:51.406Z,83.91
2023-03-26T07:22:38.391Z,84.02
2023-03-26T07:25:20.399Z,84.39
2023-03-26T07:28:18.429Z,83.04
2023-03-26T07:31:41.470Z,82.14
2023-03-26T07:34:58.398Z,81.67
2023-03-26T07:38:04.449Z,78.62
2023-03-26T07:40:55.739Z,79.47
2023-03-26T07:44:04.430Z,78.44
2023-03-26T07:46:48.435Z,78.38
2023-03-26T07:49:45.434Z,77.57
2023-03-26T07:52:34.391Z,75.55
2023-03-26T07:55:16.393Z,77.20
2023-03-26T07:58:19.414Z,72.83
2023-03-26T08:01:17.426Z,74.92
2023-03-26T08:04:23.657Z,73.38
2023-03-26T08:07:52.431Z,75.39
2023-03-26T08:10:44.532Z,75.38
2023-03-26T08:14:36.393Z,75.92
2023-03-26T08:17:18.534Z,76.44
2023-03-26T08:20:27.438Z,74.65
2023-03-26T08:23:13.541Z,75.63
2023-03-26T08:26:06.432Z,76.44
2023-03-26T08:29:02.430Z,75.93
2023-03-26T08:31:51.424Z,75.71
2023-03-26T08:34:24.472Z,75.44
2023-03-26T08:37:11.428Z,76.05
2023-03-26T08:39:52.457Z,76.06
2023-03-26T08:42:58.432Z,74.80
2023-03-26T08:46:14.453Z,75.30
2023-03-26T08:49:07.505Z,75.54
2023-03-26T08:52:15.428Z,75.46
2023-03-26T08:55:20.448Z,75.52
2023-03-26T08:58:52.428Z,75.36
2023-03-26T09:02:27.492Z,73.37
2023-03-26T09:05:07.122Z,74.02
2023-03-26T09:08:12.473Z,73.73
2023-03-26T09:10:57.606Z,72.92
2023-03-26T09:13:59.417Z,69.47
2023-03-26T09:16:35.606Z,70.85
2023-03-26T09:19:54.478Z,70.03
2023-03-26T09:23:00.529Z,70.14
2023-03-26T09:26:26.445Z,70.50
2023-03-26T09:29:45.537Z,69.44
2023-03-26T09:32:53.558Z,71.18
2023-03-26T09:35:52.861Z,70.90
2023-03-26T09:38:51.436Z,70.04
2023-03-26T09:41:50.676Z,70.63
2023-03-26T09:44:37.477Z,69.76
2023-03-26T09:47:41.591Z,70.30
2023-03-26T09:50:40.438Z,70.44
2023-03-26T09:53:31.589Z,69.12
2023-03-26T09:56:42.505Z,70.91
2023-03-26T09:59:43.500Z,69.35
2023-03-26T10:02:57.499Z,67.54
2023-03-26T10:06:05.453Z,68.75
2023-03-26T10:09:03.433Z,67.95
2023-03-26T10:11:44.630Z,66.66
2023-03-26T10:14:58.503Z,67.39
2023-03-26T10:17:48.880Z,68.23
2023-03-26T10:20:46.482Z,67.58
2023-03-26T10:23:52.482Z,68.50
2023-03-26T10:26:36.610Z,67.03
2023-03-26T10:29:45.454Z,66.29
2023-03-26T10:32:50.519Z,66.15
2023-03-26T10:35:40.545Z,66.72
2023-03-26T10:38:19.571Z,66.78
2023-03-26T10:41:23.469Z,66.49
2023-03-26T10:44:22.480Z,66.21
2023-03-26T10:47:48.559Z,65.20
2023-03-26T10:50:59.470Z,65.08
2023-03-26T10:54:04.472Z,65.07
2023-03-26T10:56:55.515Z,61.99
2023-03-26T10:59:30.685Z,65.30
2023-03-26T11:02:20.494Z,65.10
2023-03-26T11:05:27.664Z,62.56
2023-03-26T11:08:31.451Z,62.64
2023-03-26T11:11:08.591Z,63.41
2023-03-26T11:14:18.991Z,63.37
2023-03-26T11:17:14.570Z,64.06
2023-03-26T11:20:33.522Z,64.22
2023-03-26T11:23:27.663Z,63.88
2023-03-26T11:26:19.515Z,64.23
2023-03-26T11:29:03.800Z,66.59
2023-03-26T11:32:17.510Z,65.57
2023-03-26T11:35:09.507Z,64.31
2023-03-26T11:38:05.493Z,65.38
2023-03-26T11:40:57.843Z,65.53
2023-03-26T11:43:44.515Z,64.45
2023-03-26T11:46:21.670Z,65.82
2023-03-26T11:49:15.494Z,63.51
2023-03-26T11:51:52.722Z,62.41
2023-03-26T11:54:40.504Z,60.49
2023-03-26T11:57:23.685Z,59.94
2023-03-26T12:00:33.499Z,60.30
2023-03-26T12:03:13.579Z,60.54
2023-03-26T12:06:12.495Z,59.53
2023-03-26T12:08:59.505Z,60.59
2023-03-26T12:11:36.983Z,60.21
2023-03-26T12:14:31.497Z,59.77
2023-03-26T12:17:18.612Z,60.54
2023-03-26T12:20:31.509Z,60.70
2023-03-26T12:23:08.241Z,59.89
2023-03-26T12:26:12.505Z,60.35
2023-03-26T12:28:58.528Z,62.42
2023-03-26T12:32:20.547Z,61.87
2023-03-26T12:35:20.490Z,60.07
2023-03-26T12:38:43.518Z,60.46
2023-03-26T12:43:40.323Z,58.32
2023-03-26T12:44:59.344Z,58.29
2023-03-26T12:48:00.298Z,57.70
2023-03-26T12:51:06.764Z,58.14
2023-03-26T12:54:30.509Z,57.35
2023-03-26T12:57:19.784Z,57.68
2023-03-26T13:00:26.537Z,57.46
2023-03-26T13:03:18.651Z,57.11
2023-03-26T13:07:00.669Z,56.68
2023-03-26T13:10:18.549Z,56.47
2023-03-26T13:13:25.527Z,54.25
2023-03-26T13:16:26.589Z,55.90
2023-03-26T13:19:36.530Z,55.34
2023-03-26T13:22:32.551Z,56.18
2023-03-26T13:25:24.646Z,55.17
2023-03-26T13:28:26.553Z,56.16
2023-03-26T13:31:18.605Z,56.33
2023-03-26T13:34:36.558Z,56.42
2023-03-26T13:37:21.258Z,57.48
2023-03-26T13:40:40.550Z,56.90
2023-03-26T13:43:38.643Z,56.19
2023-03-26T13:46:37.605Z,56.55
2023-03-26T13:49:22.660Z,56.38
2023-03-26T13:52:18.572Z,56.71
2023-03-26T13:55:22.990Z,56.13
2023-03-26T13:58:15.558Z,56.07
2023-03-26T14:00:57.985Z,56.06
2023-03-26T14:03:51.614Z,56.52
2023-03-26T14:06:53.577Z,56.23
2023-03-26T14:09:49.571Z,56.58
2023-03-26T14:12:58.574Z,57.02
2023-03-26T14:15:54.581Z,55.83
2023-03-26T14:18:59.564Z,56.80
2023-03-26T14:22:24.602Z,56.50
2023-03-26T14:25:23.561Z,56.28
2023-03-26T14:28:30.599Z,56.19
2023-03-26T14:31:27.685Z,56.29
2023-03-26T14:34:47.562Z,56.74
2023-03-26T14:37:34.561Z,56.72
2023-03-26T14:40:39.575Z,56.35
2023-03-26T14:43:46.580Z,57.31
2023-03-26T14:46:45.649Z,57.02
2023-03-26T14:49:58.579Z,57.16
2023-03-26T14:53:02.599Z,57.58
2023-03-26T14:56:10.595Z,56.16
2023-03-26T14:59:20.596Z,57.50
2023-03-26T15:02:32.663Z,56.71
2023-03-26T15:05:54.622Z,58.28
2023-03-26T15:09:06.606Z,59.60
2023-03-26T15:12:23.692Z,58.15
2023-03-26T15:15:28.638Z,58.15
2023-03-26T15:18:26.683Z,58.33
2023-03-26T15:21:49.613Z,60.27
2023-03-26T15:25:04.744Z,60.47
2023-03-26T15:28:28.619Z,61.28
2023-03-26T15:31:36.781Z,61.81
2023-03-26T15:34:36.599Z,61.85
2023-03-26T15:37:24.934Z,60.54
2023-03-26T15:40:38.601Z,61.50
2023-03-26T15:43:26.726Z,61.68
2023-03-26T15:46:16.748Z,63.65
2023-03-26T15:49:11.786Z,62.03
2023-03-26T15:52:27.621Z,65.23
2023-03-26T15:55:10.519Z,64.38
2023-03-26T15:58:15.637Z,64.52
2023-03-26T16:01:02.787Z,63.97
2023-03-26T16:04:22.626Z,63.48
2023-03-26T16:07:13.763Z,66.55
2023-03-26T16:10:20.614Z,63.40
2023-03-26T16:13:27.676Z,63.28
2023-03-26T16:16:20.632Z,64.21
2023-03-26T16:19:01.739Z,65.27
2023-03-26T16:22:07.626Z,64.45
2023-03-26T16:24:50.627Z,66.99
2023-03-26T16:27:47.639Z,67.58
2023-03-26T16:30:39.683Z,68.59
2023-03-26T16:33:23.433Z,68.29
2023-03-26T16:36:32.640Z,68.77
2023-03-26T16:39:05.764Z,69.46
2023-03-26T16:41:53.630Z,69.75
2023-03-26T16:44:45.757Z,71.11
2023-03-26T16:47:43.617Z,70.71
2023-03-26T16:50:43.743Z,69.88
2023-03-26T16:53:53.665Z,70.88
2023-03-26T16:56:56.702Z,71.42
2023-03-26T17:00:07.733Z,71.73
2023-03-26T17:03:09.849Z,72.41
2023-03-26T17:06:08.657Z,72.40
2023-03-26T17:08:59.014Z,72.74
2023-03-26T17:12:09.657Z,72.83
2023-03-26T17:15:10.636Z,74.05
2023-03-26T17:18:07.763Z,73.65
2023-03-26T17:21:06.646Z,74.95
2023-03-26T17:23:49.839Z,75.54
2023-03-26T17:27:03.640Z,75.91
2023-03-26T17:29:48.768Z,77.46
2023-03-26T17:33:09.658Z,77.09
2023-03-26T17:35:53.825Z,77.47
2023-03-26T17:38:40.677Z,77.69
2023-03-26T17:41:21.067Z,77.96
2023-03-26T17:44:12.672Z,77.73
2023-03-26T17:46:49.778Z,78.12
2023-03-26T17:49:38.682Z,79.24
2023-03-26T17:52:58.674Z,78.87
2023-03-26T17:55:53.885Z,79.51
2023-03-26T17:58:43.672Z,79.33
2023-03-26T18:01:17.149Z,79.98
2023-03-26T18:04:06.689Z,80.92
2023-03-26T18:07:04.781Z,80.50
2023-03-26T18:10:03.682Z,81.73
2023-03-26T18:12:40.827Z,81.11
2023-03-26T18:15:45.681Z,81.39
2023-03-26T18:18:21.949Z,81.84
2023-03-26T18:21:13.690Z,82.01
2023-03-26T18:23:59.556Z,82.25
2023-03-26T18:26:53.680Z,82.93
2023-03-26T18:29:29.855Z,82.68
2023-03-26T18:32:16.689Z,82.99
2023-03-26T18:34:56.966Z,83.02
2023-03-26T18:37:45.679Z,83.89
2023-03-26T18:40:24.826Z,84.08
2023-03-26T18:43:19.444Z,84.42
2023-03-26T18:46:00.893Z,84.33
2023-03-26T18:48:48.695Z,84.48
2023-03-26T18:51:23.275Z,84.57
2023-03-26T18:54:12.703Z,84.55
2023-03-26T18:56:47.868Z,84.47
2023-03-26T18:59:41.681Z,85.08
2023-03-26T19:02:27.809Z,85.12
2023-03-26T19:05:20.688Z,85.76
2023-03-26T19:08:01.715Z,85.25
2023-03-26T19:10:48.706Z,85.75
2023-03-26T19:13:29.700Z,85.60
2023-03-26T19:16:32.734Z,86.30
2023-03-26T19:19:19.692Z,85.71
2023-03-26T19:22:13.719Z,85.97
2023-03-26T19:25:12.691Z,85.71
2023-03-26T19:27:59.698Z,85.28
2023-03-26T19:30:39.909Z,85.90
2023-03-26T19:33:27.711Z,86.02
2023-03-26T19:36:12.676Z,86.17
2023-03-26T19:39:02.723Z,86.40
2023-03-26T19:41:45.883Z,86.89
2023-03-26T19:44:34.704Z,86.85
2023-03-26T19:47:24.938Z,86.99
2023-03-26T19:50:41.715Z,87.40
2023-03-26T19:53:38.728Z,87.13
2023-03-26T19:56:33.784Z,87.21
2023-03-26T19:59:21.741Z,87.44
2023-03-26T20:01:54.883Z,87.64
2023-03-26T20:04:41.699Z,87.89
2023-03-26T20:07:22.066Z,87.12
2023-03-26T20:10:23.737Z,87.37
2023-03-26T20:13:04.747Z,87.53
2023-03-26T20:16:05.262Z,87.70
2023-03-26T20:18:40.863Z,87.54
2023-03-26T20:21:27.743Z,88.20
2023-03-26T20:24:01.956Z,88.17
2023-03-26T20:26:48.760Z,88.57
2023-03-26T20:29:21.913Z,88.32
2023-03-26T20:32:12.752Z,88.45
2023-03-26T20:34:55.732Z,88.49
2023-03-26T20:37:49.739Z,88.80
2023-03-26T20:40:37.761Z,89.18
2023-03-26T20:43:12.921Z,89.45
2023-03-26T20:45:59.745Z,89.65
2023-03-26T20:48:39.806Z,89.63
2023-03-26T20:51:34.763Z,90.02
2023-03-26T20:54:24.741Z,90.13
2023-03-26T20:56:58.905Z,89.93
2023-03-26T20:59:45.785Z,90.16
2023-03-26T21:02:26.902Z,90.01
2023-03-26T21:05:21.753Z,91.07
2023-03-26T21:08:01.740Z,90.92
2023-03-26T21:10:49.778Z,91.41
2023-03-26T21:13:41.845Z,91.92
2023-03-26T21:16:21.813Z,92.40
2023-03-26T21:19:01.759Z,93.01
2023-03-26T21:22:05.747Z,93.55
2023-03-26T21:25:04.760Z,94.62
2023-03-26T21:28:16.733Z,94.25
2023-03-26T21:31:11.819Z,95.00
2023-03-26T21:33:58.749Z,94.44
2023-03-26T21:36:33.432Z,94.33
2023-03-26T21:39:19.757Z,95.30
2023-03-26T21:42:05.896Z,95.52
2023-03-26T21:44:53.764Z,95.41
2023-03-26T21:47:33.782Z,95.85
2023-03-26T21:50:26.763Z,96.59
2023-03-26T21:53:06.778Z,96.60
2023-03-26T21:56:10.766Z,97.14
2023-03-26T21:59:09.762Z,97.55
2023-03-26T22:02:17.777Z,97.66
2023-03-26T22:05:09.776Z,97.23
2023-03-26T22:08:05.795Z,97.61
2023-03-26T22:10:45.777Z,97.96
2023-03-26T22:13:41.762Z,98.31
2023-03-26T22:16:31.822Z,98.76
2023-03-26T22:19:06.201Z,98.41
2023-03-26T22:21:52.793Z,98.56
2023-03-26T22:24:32.784Z,98.59
2023-03-26T22:27:26.813Z,98.85
2023-03-26T22:30:20.900Z,98.86
2023-03-26T22:33:18.775Z,98.89
2023-03-26T22:36:23.439Z,99.24
2023-03-26T22:39:18.778Z,99.14
2023-03-26T22:42:07.856Z,99.24
2023-03-26T22:44:47.781Z,99.30
2023-03-26T22:47:41.846Z,99.87
2023-03-26T22:50:28.790Z,99.79
2023-03-26T22:53:08.787Z,99.53
2023-03-26T22:56:02.868Z,99.93
2023-03-26T22:58:56.789Z,100.00
2023-03-26T23:01:43.822Z,100.00
2023-03-26T23:04:31.561Z,100.00
2023-03-26T23:07:25.802Z,100.00
2023-03-26T23:10:13.905Z,100.00
2023-03-26T23:12:47.963Z,100.00
2023-03-26T23:15:34.826Z,100.00
2023-03-26T23:18:14.810Z,100.00
2023-03-26T23:21:03.835Z,100.00
2023-03-26T23:23:39.779Z,100.00
2023-03-26T23:26:27.266Z,100.00
2023-03-26T23:29:08.842Z,100.00
2023-03-26T23:31:55.799Z,100.00
2023-03-26T23:34:35.822Z,100.00
2023-03-26T23:37:29.859Z,100.00
2023-03-26T23:40:16.828Z,100.00
2023-03-26T23:42:50.230Z,100.00
2023-03-26T23:45:36.857Z,100.00
2023-03-26T23:48:10.908Z,100.00
2023-03-26T23:51:03.772Z,100.00
2023-03-26T23:53:39.008Z,100.00
2023-03-26T23:56:25.806Z,100.00
2023-03-26T23:58:59.278Z,100.00
